createdAt,value
2023-05-10T00:00:55.876Z,97.3532
2023-05-10T00:01:56.873Z,97.0345
2023-05-10T00:02:58.366Z,97.0261
2023-05-10T00:05:59.952Z,97.1745
2023-05-10T00:12:05.393Z,97.5492
2023-05-10T00:13:06.604Z,97.1888
2023-05-10T00:14:07.046Z,97.5180
2023-05-10T00:15:08.390Z,97.5158
2023-05-10T00:16:08.793Z,97.1795
2023-05-10T00:17:08.826Z,97.3716
2023-05-10T00:18:09.512Z,97.3998
2023-05-10T00:19:09.701Z,97.5242
2023-05-10T00:20:10.126Z,97.5320
2023-05-10T00:21:10.334Z,97.5701
2023-05-10T00:22:11.549Z,97.6953
2023-05-10T00:23:12.935Z,97.8328
2023-05-10T00:24:13.385Z,97.8684
2023-05-10T00:25:13.331Z,97.8082
2023-05-10T00:26:13.292Z,97.7984
2023-05-10T00:27:14.299Z,97.8720
2023-05-10T00:28:15.738Z,97.8864
2023-05-10T00:30:16.547Z,97.5781
2023-05-10T00:31:16.726Z,97.8177
2023-05-10T00:32:17.604Z,97.6809
2023-05-10T00:33:17.881Z,96.9458
2023-05-10T00:34:19.132Z,97.1272
2023-05-10T00:35:20.241Z,96.8297
2023-05-10T00:36:20.841Z,96.6818
2023-05-10T00:37:21.119Z,96.9198
2023-05-10T00:38:21.934Z,97.3435
2023-05-10T00:39:21.989Z,97.4147
2023-05-10T00:40:23.338Z,97.5296
2023-05-10T00:41:23.812Z,97.7692
2023-05-10T00:42:24.452Z,97.7292
2023-05-10T00:43:24.805Z,98.0088
2023-05-10T00:44:25.697Z,97.7795
2023-05-10T00:45:26.177Z,97.8300
2023-05-10T00:46:26.483Z,97.9285
2023-05-10T00:51:30.059Z,97.9892
2023-05-10T00:52:31.148Z,98.0079
2023-05-10T00:53:32.574Z,98.0698
2023-05-10T00:54:32.446Z,97.6910
2023-05-10T00:55:33.659Z,97.6654
2023-05-10T00:56:34.886Z,97.1319
2023-05-10T00:57:34.909Z,97.3437
2023-05-10T00:58:36.146Z,97.3581
2023-05-10T00:59:37.417Z,97.3521
2023-05-10T01:00:37.390Z,97.1536
2023-05-10T01:01:38.881Z,97.0632
2023-05-10T01:02:39.100Z,97.2220
2023-05-10T01:03:40.020Z,97.2247
2023-05-10T01:04:40.140Z,97.3125
2023-05-10T01:05:40.305Z,97.5338
2023-05-10T01:06:41.626Z,97.5033
2023-05-10T01:07:41.950Z,97.1389
2023-05-10T01:08:43.307Z,96.9938
2023-05-10T01:09:44.788Z,97.0407
2023-05-10T01:10:46.087Z,96.9833
2023-05-10T01:11:48.172Z,97.1830
2023-05-10T01:12:48.861Z,97.2360
2023-05-10T01:13:49.288Z,97.3785
2023-05-10T01:14:49.547Z,97.5154
2023-05-10T01:15:51.248Z,97.3303
2023-05-10T01:16:51.527Z,97.2613
2023-05-10T01:17:51.795Z,97.3162
2023-05-10T01:18:51.842Z,97.1263
2023-05-10T01:19:52.069Z,97.1198
2023-05-10T01:20:52.572Z,97.2774
2023-05-10T01:21:53.720Z,97.3104
2023-05-10T01:22:55.214Z,97.3342
2023-05-10T01:23:56.205Z,97.3389
2023-05-10T01:24:57.578Z,97.1701
2023-05-10T01:25:57.631Z,97.1264
2023-05-10T01:26:59.025Z,96.9654
2023-05-10T01:28:00.333Z,97.1025
2023-05-10T01:29:02.024Z,97.0553
2023-05-10T01:30:14.840Z,97.1680
2023-05-10T01:31:03.190Z,96.6640
2023-05-10T01:32:03.498Z,96.5983
2023-05-10T01:33:04.942Z,97.1062
2023-05-10T01:34:05.198Z,97.2648
2023-05-10T01:35:05.299Z,97.2071
2023-05-10T01:36:06.530Z,97.0718
2023-05-10T01:37:07.310Z,97.1148
2023-05-10T01:38:07.726Z,97.0738
2023-05-10T01:39:07.974Z,97.0914
2023-05-10T01:40:08.049Z,97.1064
2023-05-10T01:41:08.785Z,97.3719
2023-05-10T01:42:09.376Z,97.0566
2023-05-10T01:43:09.752Z,96.8760
2023-05-10T01:44:10.164Z,97.0405
2023-05-10T01:45:10.801Z,97.1329
2023-05-10T01:46:11.022Z,97.2321
2023-05-10T01:47:11.803Z,96.9245
2023-05-10T01:48:12.379Z,96.7126
2023-05-10T01:49:13.112Z,96.7458
2023-05-10T01:50:13.433Z,97.1265
2023-05-10T01:51:14.157Z,97.2459
2023-05-10T01:52:15.657Z,97.1368
2023-05-10T01:53:16.245Z,97.2433
2023-05-10T01:54:16.449Z,97.4056
2023-05-10T01:55:16.828Z,97.4692
2023-05-10T01:56:17.202Z,97.3574
2023-05-10T01:57:17.491Z,97.5724
2023-05-10T01:58:17.460Z,97.8317
2023-05-10T01:59:17.671Z,97.7629
2023-05-10T02:00:18.084Z,97.7998
2023-05-10T02:01:19.166Z,97.4329
2023-05-10T02:02:19.452Z,97.5852
2023-05-10T02:03:20.461Z,97.5772
2023-05-10T02:04:21.857Z,97.7754
2023-05-10T02:05:22.385Z,97.8750
2023-05-10T02:06:22.677Z,97.5487
2023-05-10T02:07:22.857Z,97.4953
2023-05-10T02:08:23.391Z,97.7831
2023-05-10T02:09:23.846Z,97.9278
2023-05-10T02:10:24.748Z,98.0942
2023-05-10T02:11:25.153Z,98.3458
2023-05-10T02:12:25.877Z,98.3409
2023-05-10T02:13:26.377Z,98.2376
2023-05-10T02:14:28.031Z,98.3227
2023-05-10T02:15:28.716Z,98.3741
2023-05-10T02:16:30.528Z,98.1593
2023-05-10T02:18:30.298Z,98.1733
2023-05-10T02:19:31.108Z,98.3768
2023-05-10T02:20:32.092Z,98.4139
2023-05-10T02:21:32.560Z,98.4668
2023-05-10T02:22:33.809Z,98.3215
2023-05-10T02:23:35.156Z,98.1513
2023-05-10T02:24:36.129Z,98.0948
2023-05-10T02:25:38.533Z,98.2976
2023-05-10T02:26:38.391Z,98.4049
2023-05-10T02:27:38.933Z,98.4443
2023-05-10T02:28:39.102Z,98.4128
2023-05-10T02:29:40.387Z,98.5066
2023-05-10T02:30:41.251Z,98.5936
2023-05-10T02:31:42.919Z,98.4292
2023-05-10T02:32:44.332Z,98.5696
2023-05-10T02:33:44.051Z,98.7841
2023-05-10T02:34:45.099Z,98.7756
2023-05-10T02:35:45.632Z,98.8329
2023-05-10T02:36:45.844Z,98.7348
2023-05-10T02:37:47.138Z,98.5866
2023-05-10T02:38:47.804Z,98.6416
2023-05-10T02:39:48.556Z,98.6487
2023-05-10T02:40:49.643Z,98.6456
2023-05-10T02:41:50.668Z,98.6915
2023-05-10T02:42:51.393Z,98.3961
2023-05-10T02:43:52.842Z,98.3852
2023-05-10T02:44:52.529Z,98.4597
2023-05-10T02:45:53.269Z,98.5976
2023-05-10T02:46:54.791Z,98.6843
2023-05-10T02:47:55.296Z,98.6122
2023-05-10T02:48:55.260Z,98.5631
2023-05-10T02:49:56.106Z,98.5049
2023-05-10T02:50:55.802Z,98.4301
2023-05-10T02:51:57.333Z,98.4952
2023-05-10T02:52:58.123Z,98.4647
2023-05-10T02:53:58.351Z,98.5958
2023-05-10T02:54:58.948Z,98.4950
2023-05-10T02:56:01.158Z,98.5306
2023-05-10T02:57:02.402Z,98.6222
2023-05-10T02:58:02.034Z,98.5742
2023-05-10T02:59:02.279Z,98.6638
2023-05-10T03:00:02.874Z,98.6563
2023-05-10T03:01:04.801Z,98.7014
2023-05-10T03:02:05.732Z,98.7826
2023-05-10T03:03:05.759Z,98.8709
2023-05-10T03:04:06.632Z,98.9189
2023-05-10T03:05:06.877Z,98.8839
2023-05-10T03:06:07.722Z,98.9061
2023-05-10T03:07:08.229Z,98.8664
2023-05-10T03:08:08.697Z,98.8041
2023-05-10T03:09:11.273Z,98.7716
2023-05-10T03:10:10.181Z,98.8205
2023-05-10T03:11:10.338Z,98.8140
2023-05-10T03:12:12.077Z,98.6612
2023-05-10T03:13:12.847Z,98.7810
2023-05-10T03:14:14.508Z,98.8313
2023-05-10T03:16:44.925Z,98.8695
2023-05-10T03:17:43.684Z,98.7825
2023-05-10T03:18:43.837Z,98.7262
2023-05-10T03:19:44.668Z,98.6262
2023-05-10T03:20:45.096Z,98.6740
2023-05-10T03:21:45.489Z,98.7017
2023-05-10T03:22:46.056Z,98.6361
2023-05-10T03:23:46.940Z,98.5510
2023-05-10T03:24:47.830Z,98.5911
2023-05-10T03:25:48.448Z,98.7081
2023-05-10T03:26:48.533Z,98.6199
2023-05-10T03:27:49.665Z,98.6985
2023-05-10T03:28:50.631Z,98.6809
2023-05-10T03:29:51.033Z,98.6992
2023-05-10T03:30:51.668Z,98.6270
2023-05-10T03:31:52.248Z,98.6812
2023-05-10T03:32:52.645Z,98.7413
2023-05-10T03:33:53.239Z,98.7829
2023-05-10T03:34:55.671Z,98.8440
2023-05-10T03:37:57.499Z,99.0732
2023-05-10T03:38:58.375Z,98.8303
2023-05-10T03:39:57.353Z,98.8454
2023-05-10T03:40:58.849Z,98.8712
2023-05-10T03:41:58.549Z,98.9642
2023-05-10T03:42:59.037Z,99.0021
2023-05-10T03:44:00.057Z,99.0246
2023-05-10T03:44:59.880Z,99.1306
2023-05-10T03:46:00.397Z,99.1806
2023-05-10T03:47:02.272Z,99.1719
2023-05-10T03:48:01.997Z,99.0811
2023-05-10T03:49:03.292Z,99.0120
2023-05-10T03:50:02.685Z,98.9984
2023-05-10T03:51:03.871Z,98.9457
2023-05-10T03:52:05.489Z,98.9474
2023-05-10T03:54:06.133Z,99.1932
2023-05-10T03:55:05.980Z,99.1188
2023-05-10T03:56:06.732Z,99.1643
2023-05-10T03:57:07.322Z,99.1259
2023-05-10T03:58:07.583Z,99.1152
2023-05-10T03:59:07.827Z,99.2195
2023-05-10T04:00:11.265Z,99.1865
2023-05-10T04:01:09.735Z,99.2564
2023-05-10T04:02:10.601Z,99.3109
2023-05-10T04:03:11.044Z,99.4031
2023-05-10T04:04:11.820Z,99.3951
2023-05-10T04:09:14.869Z,99.4275
2023-05-10T04:10:16.026Z,99.4146
2023-05-10T04:11:16.307Z,99.4120
2023-05-10T04:12:16.359Z,99.4049
2023-05-10T04:13:18.002Z,99.3461
2023-05-10T04:14:18.391Z,99.1527
2023-05-10T04:15:19.163Z,99.0955
2023-05-10T04:16:19.287Z,98.9542
2023-05-10T04:17:21.724Z,98.8248
2023-05-10T04:18:23.011Z,98.8192
2023-05-10T04:19:23.700Z,98.7250
2023-05-10T04:20:24.429Z,98.8331
2023-05-10T04:21:25.294Z,98.8119
2023-05-10T04:22:26.248Z,98.7958
2023-05-10T04:23:27.593Z,98.8090
2023-05-10T04:24:29.191Z,98.7179
2023-05-10T04:25:30.322Z,98.5051
2023-05-10T04:26:30.880Z,98.5035
2023-05-10T04:27:31.761Z,98.7075
2023-05-10T04:28:31.925Z,98.4011
2023-05-10T04:29:32.397Z,98.3949
2023-05-10T04:30:32.758Z,98.3489
2023-05-10T04:34:36.517Z,98.4730
2023-05-10T04:35:38.505Z,98.5351
2023-05-10T04:39:42.492Z,98.6188
2023-05-10T04:40:42.161Z,98.3700
2023-05-10T04:41:42.457Z,98.4130
2023-05-10T04:42:42.589Z,98.3545
2023-05-10T04:43:43.617Z,98.1542
2023-05-10T04:44:44.716Z,97.9973
2023-05-10T04:50:48.962Z,97.8092
2023-05-10T04:51:49.544Z,97.8019
2023-05-10T04:52:49.943Z,97.6690
2023-05-10T04:54:05.254Z,97.5688
2023-05-10T04:54:56.409Z,97.2191
2023-05-10T04:55:57.881Z,97.2494
2023-05-10T04:57:00.066Z,97.1479
2023-05-10T04:58:02.162Z,96.9350
2023-05-10T04:59:03.558Z,96.9986
2023-05-10T05:00:04.315Z,96.9314
2023-05-10T05:01:05.317Z,97.1053
2023-05-10T05:02:06.431Z,97.1465
2023-05-10T05:03:08.843Z,97.3049
2023-05-10T05:04:10.486Z,97.1203
2023-05-10T05:05:11.255Z,96.9891
2023-05-10T05:06:13.472Z,97.1257
2023-05-10T05:07:14.877Z,97.2792
2023-05-10T05:08:15.793Z,97.5229
2023-05-10T05:09:16.527Z,97.4872
2023-05-10T05:10:18.295Z,97.1518
2023-05-10T05:11:18.508Z,96.8156
2023-05-10T05:12:19.313Z,96.8232
2023-05-10T05:13:19.835Z,96.7487
2023-05-10T05:14:19.939Z,96.6219
2023-05-10T05:15:20.125Z,96.2982
2023-05-10T05:16:20.983Z,96.5359
2023-05-10T05:22:26.648Z,96.4618
2023-05-10T05:23:28.080Z,96.7401
2023-05-10T05:24:28.396Z,96.6056
2023-05-10T05:25:28.814Z,96.4230
2023-05-10T05:26:29.355Z,96.6106
2023-05-10T05:27:31.189Z,96.5783
2023-05-10T05:28:32.294Z,96.6562
2023-05-10T05:29:33.667Z,97.0495
2023-05-10T05:30:35.144Z,97.3525
2023-05-10T05:31:36.732Z,97.1489
2023-05-10T05:32:38.512Z,96.9783
2023-05-10T05:33:39.234Z,96.8312
2023-05-10T05:34:39.962Z,97.1287
2023-05-10T05:35:41.301Z,96.8231
2023-05-10T05:36:42.615Z,97.0678
2023-05-10T05:37:42.998Z,97.2124
2023-05-10T05:38:43.528Z,96.9443
2023-05-10T05:39:44.226Z,96.8559
2023-05-10T05:40:44.918Z,96.9839
2023-05-10T05:41:44.954Z,97.0745
2023-05-10T05:42:45.666Z,96.5746
2023-05-10T05:43:45.845Z,96.4019
2023-05-10T05:44:50.651Z,96.5208
2023-05-10T05:45:48.114Z,96.5266
2023-05-10T05:48:48.071Z,96.0111
2023-05-10T05:49:52.451Z,96.0165
2023-05-10T05:50:51.053Z,95.9539
2023-05-10T05:51:53.457Z,96.0783
2023-05-10T05:53:54.102Z,95.6437
2023-05-10T05:54:54.345Z,95.3326
2023-05-10T05:55:54.710Z,95.0640
2023-05-10T05:56:57.660Z,95.1327
2023-05-10T05:59:58.490Z,95.5425
2023-05-10T06:03:59.862Z,94.9763
2023-05-10T06:04:59.890Z,94.8789
2023-05-10T06:06:01.208Z,94.8371
2023-05-10T06:07:03.154Z,94.6729
2023-05-10T06:08:04.708Z,94.7545
2023-05-10T06:09:05.324Z,95.2071
2023-05-10T06:10:05.618Z,95.2124
2023-05-10T06:11:05.820Z,95.1905
2023-05-10T06:12:07.959Z,94.6954
2023-05-10T06:13:10.445Z,95.0636
2023-05-10T06:14:11.361Z,95.2115
2023-05-10T06:15:13.759Z,95.2230
2023-05-10T06:16:15.070Z,95.1374
2023-05-10T06:17:16.239Z,94.9559
2023-05-10T06:18:16.908Z,94.8194
2023-05-10T06:19:20.693Z,94.9459
2023-05-10T06:21:18.842Z,94.8516
2023-05-10T06:22:19.240Z,94.6714
2023-05-10T06:23:20.768Z,93.2640
2023-05-10T06:24:21.131Z,92.7470
2023-05-10T06:25:22.332Z,92.0259
2023-05-10T06:26:23.969Z,92.5824
2023-05-10T06:27:24.882Z,92.8609
2023-05-10T06:28:26.544Z,92.8794
2023-05-10T06:29:27.191Z,93.0954
2023-05-10T06:32:27.596Z,91.2471
2023-05-10T06:33:28.261Z,90.1845
2023-05-10T06:34:29.548Z,89.6577
2023-05-10T06:35:30.650Z,89.7649
2023-05-10T06:36:31.384Z,90.0810
2023-05-10T06:37:31.960Z,90.5994
2023-05-10T06:38:32.556Z,90.2164
2023-05-10T06:39:33.198Z,90.7559
2023-05-10T06:40:33.695Z,89.7507
2023-05-10T06:41:34.286Z,90.2535
2023-05-10T06:42:34.963Z,90.7066
2023-05-10T06:43:35.530Z,91.1886
2023-05-10T06:44:35.976Z,91.3905
2023-05-10T06:45:37.094Z,91.7961
2023-05-10T06:46:37.682Z,92.2527
2023-05-10T06:47:40.678Z,92.0240
2023-05-10T06:48:41.321Z,91.8503
2023-05-10T06:49:41.669Z,92.1225
2023-05-10T06:50:42.333Z,92.3585
2023-05-10T06:51:43.041Z,92.1700
2023-05-10T06:52:44.054Z,92.5945
2023-05-10T06:53:44.706Z,92.8696
2023-05-10T06:54:45.127Z,92.7001
2023-05-10T06:55:46.232Z,91.9545
2023-05-10T06:56:47.092Z,92.0135
2023-05-10T06:57:47.339Z,91.2310
2023-05-10T06:58:48.092Z,91.4727
2023-05-10T06:59:49.064Z,91.6957
2023-05-10T07:00:49.862Z,91.6344
2023-05-10T07:01:50.295Z,91.8730
2023-05-10T07:02:51.285Z,91.7108
2023-05-10T07:03:52.153Z,91.8647
2023-05-10T07:04:53.070Z,91.9084
2023-05-10T07:05:54.015Z,91.8972
2023-05-10T07:06:54.191Z,91.5469
2023-05-10T07:07:55.404Z,91.6333
2023-05-10T07:08:55.844Z,91.6584
2023-05-10T07:09:56.384Z,91.5419
2023-05-10T07:10:57.095Z,91.4443
2023-05-10T07:11:58.081Z,90.9564
2023-05-10T07:12:58.727Z,90.9589
2023-05-10T07:13:59.006Z,90.3048
2023-05-10T07:14:59.473Z,89.9659
2023-05-10T07:16:00.723Z,89.7976
2023-05-10T07:17:01.696Z,89.8931
2023-05-10T07:18:02.464Z,90.0710
2023-05-10T07:19:03.327Z,89.7582
2023-05-10T07:20:04.341Z,90.3957
2023-05-10T07:21:04.957Z,90.6030
2023-05-10T07:22:05.761Z,90.7744
2023-05-10T07:23:06.518Z,90.0476
2023-05-10T07:24:06.849Z,89.4515
2023-05-10T07:25:07.270Z,89.6497
2023-05-10T07:26:07.869Z,89.4905
2023-05-10T07:27:08.612Z,89.5471
2023-05-10T07:28:09.253Z,89.5790
2023-05-10T07:29:09.640Z,89.2859
2023-05-10T07:30:10.261Z,88.6973
2023-05-10T07:31:11.191Z,88.6958
2023-05-10T07:32:12.138Z,89.1430
2023-05-10T07:33:13.006Z,88.8642
2023-05-10T07:34:13.610Z,88.8183
2023-05-10T07:35:14.394Z,89.4142
2023-05-10T07:36:15.094Z,89.3840
2023-05-10T07:37:15.659Z,89.4111
2023-05-10T07:38:16.264Z,89.3446
2023-05-10T07:39:26.593Z,88.9928
2023-05-10T07:40:21.288Z,88.8397
2023-05-10T07:41:21.635Z,88.7894
2023-05-10T07:42:21.786Z,88.8328
2023-05-10T07:43:22.639Z,89.2371
2023-05-10T07:44:23.788Z,89.6623
2023-05-10T07:45:24.152Z,90.0772
2023-05-10T07:46:24.532Z,89.9709
2023-05-10T07:47:25.056Z,90.3104
2023-05-10T07:48:25.731Z,89.3749
2023-05-10T07:49:26.727Z,88.5401
2023-05-10T07:50:27.902Z,88.8613
2023-05-10T07:51:29.120Z,88.7052
2023-05-10T07:52:30.277Z,88.7297
2023-05-10T07:53:31.379Z,89.5254
2023-05-10T07:54:31.919Z,89.1985
2023-05-10T07:55:32.907Z,88.7333
2023-05-10T07:56:33.515Z,87.9928
2023-05-10T07:57:33.701Z,87.8136
2023-05-10T07:58:34.825Z,87.5334
2023-05-10T07:59:35.091Z,86.6858
2023-05-10T08:00:35.837Z,86.1463
2023-05-10T08:01:36.404Z,86.3782
2023-05-10T08:02:37.698Z,85.5521
2023-05-10T08:03:38.044Z,85.2215
2023-05-10T08:04:39.323Z,85.4610
2023-05-10T08:05:39.157Z,85.5073
2023-05-10T08:06:39.779Z,85.6552
2023-05-10T08:07:40.831Z,85.6087
2023-05-10T08:08:41.555Z,85.5655
2023-05-10T08:09:42.224Z,84.8428
2023-05-10T08:10:42.820Z,85.0773
2023-05-10T08:11:44.062Z,85.3664
2023-05-10T08:12:44.679Z,84.8119
2023-05-10T08:13:45.156Z,85.1007
2023-05-10T08:14:46.211Z,85.0798
2023-05-10T08:15:46.852Z,85.1413
2023-05-10T08:16:47.909Z,84.5909
2023-05-10T08:17:48.405Z,85.0076
2023-05-10T08:18:48.553Z,85.0455
2023-05-10T08:19:48.548Z,85.3120
2023-05-10T08:20:49.588Z,85.2360
2023-05-10T08:21:50.768Z,85.3601
2023-05-10T08:22:51.955Z,85.2180
2023-05-10T08:23:51.569Z,84.2723
2023-05-10T08:24:52.211Z,84.4195
2023-05-10T08:25:53.380Z,84.2118
2023-05-10T08:26:53.738Z,84.5446
2023-05-10T08:27:54.193Z,84.7121
2023-05-10T08:28:54.718Z,82.9252
2023-05-10T08:29:54.874Z,82.7590
2023-05-10T08:30:55.202Z,83.3739
2023-05-10T08:31:56.217Z,82.9546
2023-05-10T08:32:56.830Z,82.4280
2023-05-10T08:33:57.718Z,81.9166
2023-05-10T08:34:58.470Z,82.1995
2023-05-10T08:35:58.245Z,82.0492
2023-05-10T08:36:58.684Z,82.4210
2023-05-10T08:37:58.867Z,82.0544
2023-05-10T08:38:59.327Z,80.6228
2023-05-10T08:39:59.528Z,79.9831
2023-05-10T08:41:00.434Z,80.2878
2023-05-10T08:42:00.839Z,80.5852
2023-05-10T08:43:01.700Z,81.1992
2023-05-10T08:44:02.405Z,81.1887
2023-05-10T08:45:03.359Z,81.6615
2023-05-10T08:46:03.972Z,80.7943
2023-05-10T08:47:04.082Z,80.1969
2023-05-10T08:48:04.981Z,79.9604
2023-05-10T08:49:05.806Z,80.5915
2023-05-10T08:50:06.396Z,79.9910
2023-05-10T08:51:07.163Z,79.1992
2023-05-10T08:52:07.958Z,79.0376
2023-05-10T08:53:08.332Z,79.3688
2023-05-10T08:54:08.946Z,79.9093
2023-05-10T08:55:09.600Z,79.4549
2023-05-10T08:56:10.308Z,79.4519
2023-05-10T08:57:11.386Z,79.0656
2023-05-10T08:58:12.133Z,78.9230
2023-05-10T08:59:12.839Z,79.2678
2023-05-10T09:00:13.602Z,78.4710
2023-05-10T09:01:14.201Z,78.4211
2023-05-10T09:02:16.619Z,78.3449
2023-05-10T09:03:15.394Z,78.9260
2023-05-10T09:04:16.173Z,78.5628
2023-05-10T09:05:16.690Z,77.9899
2023-05-10T09:06:16.977Z,78.1668
2023-05-10T09:07:17.545Z,77.9397
2023-05-10T09:08:18.016Z,77.5411
2023-05-10T09:09:18.780Z,77.8093
2023-05-10T09:10:19.361Z,78.1748
2023-05-10T09:11:19.960Z,77.9315
2023-05-10T09:12:20.477Z,78.4348
2023-05-10T09:13:21.427Z,78.7880
2023-05-10T09:14:22.120Z,78.4179
2023-05-10T09:15:22.780Z,78.0765
2023-05-10T09:16:22.877Z,78.4222
2023-05-10T09:17:23.826Z,78.8098
2023-05-10T09:18:27.300Z,78.6922
2023-05-10T09:19:24.861Z,78.7330
2023-05-10T09:20:24.867Z,78.6208
2023-05-10T09:21:25.291Z,78.5589
2023-05-10T09:22:26.011Z,78.6085
2023-05-10T09:23:26.484Z,78.6274
2023-05-10T09:24:27.377Z,78.8563
2023-05-10T09:25:28.051Z,79.3950
2023-05-10T09:26:28.829Z,79.6382
2023-05-10T09:27:29.318Z,79.4854
2023-05-10T09:28:30.057Z,79.5422
2023-05-10T09:29:30.315Z,79.1157
2023-05-10T09:30:31.183Z,79.3852
2023-05-10T09:31:32.461Z,79.6747
2023-05-10T09:32:33.063Z,79.9131
2023-05-10T09:33:33.847Z,79.4737
2023-05-10T09:34:34.522Z,78.3049
2023-05-10T09:35:34.841Z,77.6806
2023-05-10T09:36:35.358Z,77.3950
2023-05-10T09:37:36.236Z,77.9168
2023-05-10T09:38:36.747Z,77.6260
2023-05-10T09:39:37.186Z,77.5246
2023-05-10T09:40:37.803Z,77.8345
2023-05-10T09:41:38.388Z,78.2041
2023-05-10T09:42:39.007Z,78.9914
2023-05-10T09:43:39.390Z,79.2898
2023-05-10T09:44:40.074Z,79.8884
2023-05-10T09:45:41.066Z,79.3384
2023-05-10T09:46:42.085Z,78.8184
2023-05-10T09:47:42.539Z,79.4131
2023-05-10T09:48:43.322Z,78.2739
2023-05-10T09:49:43.828Z,76.8746
2023-05-10T09:50:44.522Z,77.0280
2023-05-10T09:51:45.255Z,77.5457
2023-05-10T09:52:45.935Z,77.9749
2023-05-10T09:53:46.222Z,78.2971
2023-05-10T09:54:46.807Z,78.4915
2023-05-10T09:55:47.423Z,78.5274
2023-05-10T09:56:47.536Z,78.5525
2023-05-10T09:57:48.631Z,78.1150
2023-05-10T09:58:49.112Z,77.0540
2023-05-10T09:59:49.597Z,76.6547
2023-05-10T10:00:50.463Z,76.6092
2023-05-10T10:01:51.734Z,76.8177
2023-05-10T10:02:52.350Z,76.1887
2023-05-10T10:03:53.226Z,76.6430
2023-05-10T10:04:54.014Z,76.4466
2023-05-10T10:05:54.291Z,76.6734
2023-05-10T10:06:55.036Z,75.2924
2023-05-10T10:07:55.524Z,75.6888
2023-05-10T10:08:58.462Z,76.0006
2023-05-10T10:09:59.674Z,75.7504
2023-05-10T10:11:00.169Z,75.4226
2023-05-10T10:12:00.715Z,75.0645
2023-05-10T10:13:01.218Z,74.7654
2023-05-10T10:14:01.683Z,75.2439
2023-05-10T10:15:02.224Z,73.9522
2023-05-10T10:16:02.358Z,74.6937
2023-05-10T10:17:09.100Z,73.1161
2023-05-10T10:18:09.215Z,73.4173
2023-05-10T10:19:09.098Z,73.5694
2023-05-10T10:20:11.987Z,73.4902
2023-05-10T10:21:09.615Z,73.7825
2023-05-10T10:22:10.251Z,73.1842
2023-05-10T10:23:10.867Z,72.5738
2023-05-10T10:24:11.213Z,72.6917
2023-05-10T10:25:11.738Z,71.8582
2023-05-10T10:26:12.886Z,72.3371
2023-05-10T10:27:13.415Z,72.4218
2023-05-10T10:28:13.844Z,70.6813
2023-05-10T10:29:14.443Z,70.9193
2023-05-10T10:30:15.065Z,69.9928
2023-05-10T10:31:15.618Z,70.0359
2023-05-10T10:32:16.382Z,70.4431
2023-05-10T10:33:27.708Z,70.4800
2023-05-10T10:34:18.724Z,71.1195
2023-05-10T10:35:19.165Z,69.0866
2023-05-10T10:36:19.771Z,69.4744
2023-05-10T10:37:20.440Z,69.1305
2023-05-10T10:38:20.849Z,68.4478
2023-05-10T10:39:21.399Z,67.5069
2023-05-10T10:40:21.953Z,67.4234
2023-05-10T10:41:22.582Z,68.3177
2023-05-10T10:42:22.940Z,68.1829
2023-05-10T10:43:23.532Z,67.8108
2023-05-10T10:44:24.124Z,68.0011
2023-05-10T10:45:24.722Z,67.8698
2023-05-10T10:46:26.139Z,67.5082
2023-05-10T10:47:27.366Z,68.3417
2023-05-10T10:48:27.419Z,68.4051
2023-05-10T10:49:28.454Z,67.8528
2023-05-10T10:50:29.266Z,67.2280
2023-05-10T10:51:30.376Z,67.4125
2023-05-10T10:52:31.598Z,67.2840
2023-05-10T10:53:32.013Z,67.3610
2023-05-10T10:54:32.162Z,67.0165
2023-05-10T10:55:32.754Z,67.1322
2023-05-10T10:56:35.210Z,67.3136
2023-05-10T10:57:34.445Z,67.3238
2023-05-10T10:58:35.450Z,67.4995
2023-05-10T10:59:36.559Z,68.0070
2023-05-10T11:00:37.852Z,66.4472
2023-05-10T11:01:38.784Z,66.6732
2023-05-10T11:02:39.135Z,68.0614
2023-05-10T11:03:39.430Z,68.2130
2023-05-10T11:04:40.509Z,68.1194
2023-05-10T11:05:40.529Z,67.4768
2023-05-10T11:06:41.715Z,67.4200
2023-05-10T11:07:42.799Z,67.8911
2023-05-10T11:08:43.795Z,67.3421
2023-05-10T11:09:44.887Z,68.1283
2023-05-10T11:10:46.104Z,68.0851
2023-05-10T11:11:47.063Z,68.1603
2023-05-10T11:12:48.192Z,68.1130
2023-05-10T11:13:50.842Z,67.9420
2023-05-10T11:14:50.193Z,67.8442
2023-05-10T11:15:51.258Z,67.9280
2023-05-10T11:16:51.369Z,67.9390
2023-05-10T11:17:52.596Z,68.4635
2023-05-10T11:18:52.650Z,68.1138
2023-05-10T11:19:52.962Z,69.0362
2023-05-10T11:20:53.249Z,68.7244
2023-05-10T11:21:54.594Z,69.4725
2023-05-10T11:22:55.533Z,69.1357
2023-05-10T11:23:56.646Z,68.9270
2023-05-10T11:24:57.178Z,69.5636
2023-05-10T11:25:58.375Z,68.7592
2023-05-10T11:26:59.435Z,70.3553
2023-05-10T11:28:00.637Z,69.7095
2023-05-10T11:29:01.627Z,69.9079
2023-05-10T11:30:05.100Z,69.0712
2023-05-10T11:31:05.313Z,67.9143
2023-05-10T11:32:05.474Z,66.5297
2023-05-10T11:33:06.621Z,66.7444
2023-05-10T11:34:06.693Z,66.0987
2023-05-10T11:35:07.771Z,66.0556
2023-05-10T11:36:08.819Z,65.6877
2023-05-10T11:37:10.164Z,65.7589
2023-05-10T11:38:11.112Z,65.9949
2023-05-10T11:39:12.289Z,66.5542
2023-05-10T11:40:13.548Z,66.7043
2023-05-10T11:41:13.517Z,66.3564
2023-05-10T11:42:14.297Z,65.5834
2023-05-10T11:43:14.314Z,65.6714
2023-05-10T11:44:15.320Z,65.6230
2023-05-10T11:45:16.378Z,65.9478
2023-05-10T11:46:16.411Z,64.4235
2023-05-10T11:47:16.981Z,65.4331
2023-05-10T11:48:18.035Z,65.4989
2023-05-10T11:49:19.124Z,64.8848
2023-05-10T11:50:20.391Z,65.1824
2023-05-10T11:51:21.488Z,65.1560
2023-05-10T11:52:21.716Z,64.7144
2023-05-10T11:53:24.811Z,64.0377
2023-05-10T11:54:22.977Z,63.4372
2023-05-10T11:55:23.975Z,63.8131
2023-05-10T11:56:25.202Z,64.4074
2023-05-10T11:57:25.258Z,64.2153
2023-05-10T11:58:26.445Z,63.5777
2023-05-10T11:59:27.399Z,63.1928
2023-05-10T12:00:27.800Z,62.2421
2023-05-10T12:01:28.761Z,62.7194
2023-05-10T12:02:28.861Z,63.0600
2023-05-10T12:03:30.167Z,63.2034
2023-05-10T12:04:31.017Z,62.6254
2023-05-10T12:05:31.828Z,62.1983
2023-05-10T12:06:31.786Z,61.5271
2023-05-10T12:07:32.945Z,61.4841
2023-05-10T12:08:33.026Z,61.0210
2023-05-10T12:09:43.088Z,59.9500
2023-05-10T12:10:34.306Z,59.2816
2023-05-10T12:11:35.446Z,59.2517
2023-05-10T12:12:36.670Z,60.3713
2023-05-10T12:13:37.897Z,60.5987
2023-05-10T12:14:39.074Z,59.5773
2023-05-10T12:15:40.250Z,59.6288
2023-05-10T12:16:41.851Z,60.5992
2023-05-10T12:17:43.514Z,61.3983
2023-05-10T12:18:43.921Z,60.3332
2023-05-10T12:19:44.608Z,61.2150
2023-05-10T12:20:45.088Z,62.0159
2023-05-10T12:21:46.294Z,62.0050
2023-05-10T12:22:47.470Z,63.1644
2023-05-10T12:23:48.429Z,64.6786
2023-05-10T12:24:49.581Z,64.0162
2023-05-10T12:25:49.618Z,65.8137
2023-05-10T12:26:50.902Z,69.8975
2023-05-10T12:27:52.042Z,72.4103
2023-05-10T12:28:52.038Z,73.3614
2023-05-10T12:29:52.056Z,73.5665
2023-05-10T12:30:53.225Z,73.6775
2023-05-10T12:31:53.403Z,74.3842
2023-05-10T12:32:53.777Z,73.4549
2023-05-10T12:33:55.113Z,73.5199
2023-05-10T12:34:56.031Z,73.0035
2023-05-10T12:35:57.295Z,73.5615
2023-05-10T12:36:58.441Z,73.5777
2023-05-10T12:37:58.461Z,73.5344
2023-05-10T12:38:59.518Z,73.8087
2023-05-10T12:40:00.834Z,74.6850
2023-05-10T12:41:01.026Z,74.9281
2023-05-10T12:42:01.969Z,75.6805
2023-05-10T12:43:02.188Z,76.1828
2023-05-10T12:44:02.412Z,75.9712
2023-05-10T12:45:03.584Z,76.3968
2023-05-10T12:46:04.948Z,76.7849
2023-05-10T12:47:05.035Z,76.8412
2023-05-10T12:48:06.060Z,77.1738
2023-05-10T12:49:11.718Z,78.0423
2023-05-10T12:50:11.879Z,78.4398
2023-05-10T12:51:12.955Z,78.0816
2023-05-10T12:52:14.121Z,77.3241
2023-05-10T12:53:15.290Z,76.7648
2023-05-10T12:54:15.379Z,77.4952
2023-05-10T12:55:16.485Z,78.2027
2023-05-10T12:56:17.702Z,78.2296
2023-05-10T12:57:18.890Z,77.6413
2023-05-10T12:58:35.068Z,77.5835
2023-05-10T12:59:23.778Z,76.8196
2023-05-10T13:00:23.653Z,76.9520
2023-05-10T13:01:23.943Z,76.6540
2023-05-10T13:02:24.050Z,76.4934
2023-05-10T13:03:24.213Z,77.1266
2023-05-10T13:04:25.298Z,77.4154